sensor_id;sensor_type;location;lat;lon;timestamp;P1;durP1;ratioP1;P2;durP2;ratioP2
71236;SDS011;58984;51.960;5.582;2023-02-03T00:00:37;10.52;;;3.40;;
71236;SDS011;58984;51.960;5.582;2023-02-03T00:03:03;10.93;;;4.32;;
71236;SDS011;58984;51.960;5.582;2023-02-03T00:05:28;7.53;;;3.92;;
71236;SDS011;58984;51.960;5.582;2023-02-03T00:07:55;9.35;;;3.85;;
71236;SDS011;58984;51.960;5.582;2023-02-03T00:10:21;13.68;;;4.05;;
71236;SDS011;58984;51.960;5.582;2023-02-03T00:12:50;7.30;;;3.83;;
71236;SDS011;58984;51.960;5.582;2023-02-03T00:15:16;12.02;;;4.15;;
71236;SDS011;58984;51.960;5.582;2023-02-03T00:17:43;9.60;;;4.60;;
71236;SDS011;58984;51.960;5.582;2023-02-03T00:20:09;7.68;;;3.97;;
71236;SDS011;58984;51.960;5.582;2023-02-03T00:22:35;10.95;;;3.88;;
71236;SDS011;58984;51.960;5.582;2023-02-03T00:25:00;7.50;;;3.75;;
71236;SDS011;58984;51.960;5.582;2023-02-03T00:27:26;8.35;;;4.18;;
71236;SDS011;58984;51.960;5.582;2023-02-03T00:29:51;14.32;;;3.40;;
71236;SDS011;58984;51.960;5.582;2023-02-03T00:32:17;10.18;;;3.33;;
71236;SDS011;58984;51.960;5.582;2023-02-03T00:34:42;12.45;;;4.32;;
71236;SDS011;58984;51.960;5.582;2023-02-03T00:37:08;8.18;;;4.40;;
71236;SDS011;58984;51.960;5.582;2023-02-03T00:39:36;6.90;;;3.80;;
71236;SDS011;58984;51.960;5.582;2023-02-03T00:42:02;7.13;;;3.83;;
71236;SDS011;58984;51.960;5.582;2023-02-03T00:44:29;13.85;;;3.50;;
71236;SDS011;58984;51.960;5.582;2023-02-03T00:46:54;7.13;;;3.20;;
71236;SDS011;58984;51.960;5.582;2023-02-03T00:49:20;9.13;;;3.40;;
71236;SDS011;58984;51.960;5.582;2023-02-03T00:51:45;6.03;;;3.10;;
71236;SDS011;58984;51.960;5.582;2023-02-03T00:54:11;12.00;;;3.97;;
71236;SDS011;58984;51.960;5.582;2023-02-03T00:56:37;6.15;;;3.78;;
71236;SDS011;58984;51.960;5.582;2023-02-03T00:59:03;8.90;;;3.40;;
71236;SDS011;58984;51.960;5.582;2023-02-03T01:01:29;5.15;;;3.03;;
71236;SDS011;58984;51.960;5.582;2023-02-03T01:03:54;6.97;;;3.28;;
71236;SDS011;58984;51.960;5.582;2023-02-03T01:06:21;6.07;;;3.10;;
71236;SDS011;58984;51.960;5.582;2023-02-03T01:08:47;6.85;;;3.45;;
71236;SDS011;58984;51.960;5.582;2023-02-03T01:11:15;5.63;;;3.58;;
71236;SDS011;58984;51.960;5.582;2023-02-03T01:13:45;5.95;;;3.10;;
71236;SDS011;58984;51.960;5.582;2023-02-03T01:16:12;7.95;;;4.18;;
71236;SDS011;58984;51.960;5.582;2023-02-03T01:18:39;8.32;;;3.42;;
71236;SDS011;58984;51.960;5.582;2023-02-03T01:21:06;9.80;;;2.88;;
71236;SDS011;58984;51.960;5.582;2023-02-03T01:23:33;8.20;;;3.28;;
71236;SDS011;58984;51.960;5.582;2023-02-03T01:26:06;7.55;;;3.50;;
71236;SDS011;58984;51.960;5.582;2023-02-03T01:28:33;7.35;;;3.15;;
71236;SDS011;58984;51.960;5.582;2023-02-03T01:31:12;7.13;;;3.38;;
71236;SDS011;58984;51.960;5.582;2023-02-03T01:33:39;6.90;;;3.13;;
71236;SDS011;58984;51.960;5.582;2023-02-03T01:36:06;6.35;;;2.78;;
71236;SDS011;58984;51.960;5.582;2023-02-03T01:38:32;8.55;;;3.60;;
71236;SDS011;58984;51.960;5.582;2023-02-03T01:40:58;6.45;;;3.15;;
71236;SDS011;58984;51.960;5.582;2023-02-03T01:43:28;6.07;;;2.83;;
71236;SDS011;58984;51.960;5.582;2023-02-03T01:45:59;9.10;;;3.58;;
71236;SDS011;58984;51.960;5.582;2023-02-03T01:50:59;5.85;;;3.72;;
71236;SDS011;58984;51.960;5.582;2023-02-03T01:53:26;8.88;;;3.58;;
71236;SDS011;58984;51.960;5.582;2023-02-03T01:55:52;8.13;;;3.10;;
71236;SDS011;58984;51.960;5.582;2023-02-03T01:58:25;8.95;;;3.20;;
71236;SDS011;58984;51.960;5.582;2023-02-03T02:00:53;8.60;;;3.75;;
71236;SDS011;58984;51.960;5.582;2023-02-03T02:03:22;5.72;;;3.30;;
71236;SDS011;58984;51.960;5.582;2023-02-03T02:06:05;5.03;;;3.25;;
71236;SDS011;58984;51.960;5.582;2023-02-03T02:08:32;7.95;;;3.42;;
71236;SDS011;58984;51.960;5.582;2023-02-03T02:10:58;4.88;;;3.17;;
71236;SDS011;58984;51.960;5.582;2023-02-03T02:13:25;9.52;;;3.90;;
71236;SDS011;58984;51.960;5.582;2023-02-03T02:27:15;4.55;;;3.17;;
71236;SDS011;58984;51.960;5.582;2023-02-03T02:35:54;6.85;;;3.25;;
71236;SDS011;58984;51.960;5.582;2023-02-03T02:43:57;5.72;;;3.15;;
71236;SDS011;58984;51.960;5.582;2023-02-03T02:46:30;5.68;;;3.30;;
71236;SDS011;58984;51.960;5.582;2023-02-03T02:49:18;7.25;;;3.47;;
71236;SDS011;58984;51.960;5.582;2023-02-03T02:51:54;8.95;;;3.38;;
71236;SDS011;58984;51.960;5.582;2023-02-03T02:54:23;8.23;;;3.35;;
71236;SDS011;58984;51.960;5.582;2023-02-03T02:56:51;5.97;;;3.50;;
71236;SDS011;58984;51.960;5.582;2023-02-03T02:59:20;8.13;;;3.63;;
71236;SDS011;58984;51.960;5.582;2023-02-03T03:01:45;8.50;;;3.50;;
71236;SDS011;58984;51.960;5.582;2023-02-03T03:04:12;3.28;;;2.70;;
71236;SDS011;58984;51.960;5.582;2023-02-03T03:06:42;12.05;;;3.70;;
71236;SDS011;58984;51.960;5.582;2023-02-03T03:09:22;4.97;;;3.38;;
71236;SDS011;58984;51.960;5.582;2023-02-03T03:11:58;6.07;;;3.45;;
71236;SDS011;58984;51.960;5.582;2023-02-03T03:14:47;6.47;;;3.45;;
71236;SDS011;58984;51.960;5.582;2023-02-03T03:17:20;8.32;;;2.80;;
71236;SDS011;58984;51.960;5.582;2023-02-03T03:19:52;7.18;;;3.10;;
71236;SDS011;58984;51.960;5.582;2023-02-03T03:22:22;5.88;;;3.40;;
71236;SDS011;58984;51.960;5.582;2023-02-03T03:24:57;8.70;;;3.17;;
71236;SDS011;58984;51.960;5.582;2023-02-03T03:27:31;9.38;;;3.33;;
71236;SDS011;58984;51.960;5.582;2023-02-03T03:30:07;8.73;;;3.17;;
71236;SDS011;58984;51.960;5.582;2023-02-03T03:32:44;8.73;;;3.50;;
71236;SDS011;58984;51.960;5.582;2023-02-03T03:35:10;7.78;;;3.40;;
71236;SDS011;58984;51.960;5.582;2023-02-03T03:40:23;6.47;;;3.17;;
71236;SDS011;58984;51.960;5.582;2023-02-03T03:42:59;7.63;;;3.30;;
71236;SDS011;58984;51.960;5.582;2023-02-03T03:45:36;8.10;;;3.13;;
71236;SDS011;58984;51.960;5.582;2023-02-03T03:50:57;5.15;;;3.28;;
71236;SDS011;58984;51.960;5.582;2023-02-03T03:53:31;7.68;;;3.42;;
71236;SDS011;58984;51.960;5.582;2023-02-03T03:55:59;7.80;;;3.25;;
71236;SDS011;58984;51.960;5.582;2023-02-03T03:58:29;6.40;;;2.92;;
71236;SDS011;58984;51.960;5.582;2023-02-03T04:00:56;5.90;;;3.28;;
71236;SDS011;58984;51.960;5.582;2023-02-03T04:03:36;10.25;;;3.47;;
71236;SDS011;58984;51.960;5.582;2023-02-03T04:06:05;6.28;;;2.90;;
71236;SDS011;58984;51.960;5.582;2023-02-03T04:08:31;8.05;;;3.38;;
71236;SDS011;58984;51.960;5.582;2023-02-03T04:10:57;5.90;;;3.25;;
71236;SDS011;58984;51.960;5.582;2023-02-03T04:13:22;11.18;;;3.28;;
71236;SDS011;58984;51.960;5.582;2023-02-03T04:15:48;6.32;;;2.70;;
71236;SDS011;58984;51.960;5.582;2023-02-03T04:18:14;8.65;;;3.40;;
71236;SDS011;58984;51.960;5.582;2023-02-03T04:20:40;7.90;;;2.88;;
71236;SDS011;58984;51.960;5.582;2023-02-03T04:23:06;8.15;;;3.03;;
71236;SDS011;58984;51.960;5.582;2023-02-03T04:25:32;6.00;;;3.03;;
71236;SDS011;58984;51.960;5.582;2023-02-03T04:27:58;4.68;;;2.65;;
71236;SDS011;58984;51.960;5.582;2023-02-03T04:30:24;6.35;;;3.20;;
71236;SDS011;58984;51.960;5.582;2023-02-03T04:32:50;4.63;;;2.97;;
71236;SDS011;58984;51.960;5.582;2023-02-03T04:35:16;4.38;;;2.88;;
71236;SDS011;58984;51.960;5.582;2023-02-03T04:37:41;10.02;;;3.17;;
71236;SDS011;58984;51.960;5.582;2023-02-03T04:40:07;6.43;;;2.67;;
71236;SDS011;58984;51.960;5.582;2023-02-03T04:42:35;4.28;;;2.63;;
71236;SDS011;58984;51.960;5.582;2023-02-03T04:45:02;7.70;;;2.97;;
71236;SDS011;58984;51.960;5.582;2023-02-03T04:47:29;9.32;;;3.33;;
71236;SDS011;58984;51.960;5.582;2023-02-03T04:49:54;7.38;;;2.97;;
71236;SDS011;58984;51.960;5.582;2023-02-03T04:52:20;8.68;;;3.35;;
71236;SDS011;58984;51.960;5.582;2023-02-03T04:54:45;9.65;;;3.28;;
71236;SDS011;58984;51.960;5.582;2023-02-03T04:57:11;6.60;;;2.95;;
71236;SDS011;58984;51.960;5.582;2023-02-03T04:59:36;6.47;;;3.00;;
71236;SDS011;58984;51.960;5.582;2023-02-03T05:02:02;6.32;;;3.10;;
71236;SDS011;58984;51.960;5.582;2023-02-03T05:04:28;7.60;;;3.28;;
71236;SDS011;58984;51.960;5.582;2023-02-03T05:06:54;8.80;;;3.28;;
71236;SDS011;58984;51.960;5.582;2023-02-03T05:09:21;9.73;;;3.38;;
71236;SDS011;58984;51.960;5.582;2023-02-03T05:11:47;8.23;;;3.03;;
71236;SDS011;58984;51.960;5.582;2023-02-03T05:14:13;7.22;;;2.72;;
71236;SDS011;58984;51.960;5.582;2023-02-03T05:16:38;5.18;;;2.53;;
71236;SDS011;58984;51.960;5.582;2023-02-03T05:19:04;4.35;;;2.75;;
71236;SDS011;58984;51.960;5.582;2023-02-03T05:21:29;8.52;;;3.25;;
71236;SDS011;58984;51.960;5.582;2023-02-03T05:23:55;4.30;;;2.55;;
71236;SDS011;58984;51.960;5.582;2023-02-03T05:26:20;7.65;;;2.70;;
71236;SDS011;58984;51.960;5.582;2023-02-03T05:28:46;6.07;;;3.30;;
71236;SDS011;58984;51.960;5.582;2023-02-03T05:31:11;7.65;;;3.55;;
71236;SDS011;58984;51.960;5.582;2023-02-03T05:33:37;12.70;;;3.38;;
71236;SDS011;58984;51.960;5.582;2023-02-03T05:36:03;6.13;;;3.28;;
71236;SDS011;58984;51.960;5.582;2023-02-03T05:38:28;6.05;;;3.05;;
71236;SDS011;58984;51.960;5.582;2023-02-03T05:40:54;7.72;;;3.08;;
71236;SDS011;58984;51.960;5.582;2023-02-03T05:43:38;8.25;;;2.95;;
71236;SDS011;58984;51.960;5.582;2023-02-03T05:46:04;11.07;;;2.83;;
71236;SDS011;58984;51.960;5.582;2023-02-03T05:48:31;7.80;;;2.92;;
71236;SDS011;58984;51.960;5.582;2023-02-03T05:50:57;7.82;;;2.90;;
71236;SDS011;58984;51.960;5.582;2023-02-03T05:53:23;5.18;;;2.78;;
71236;SDS011;58984;51.960;5.582;2023-02-03T05:55:48;6.07;;;3.33;;
71236;SDS011;58984;51.960;5.582;2023-02-03T05:58:14;7.00;;;2.90;;
71236;SDS011;58984;51.960;5.582;2023-02-03T06:00:40;10.00;;;3.53;;
71236;SDS011;58984;51.960;5.582;2023-02-03T06:03:08;5.60;;;2.70;;
71236;SDS011;58984;51.960;5.582;2023-02-03T06:05:34;8.25;;;3.40;;
71236;SDS011;58984;51.960;5.582;2023-02-03T06:08:05;5.75;;;3.08;;
71236;SDS011;58984;51.960;5.582;2023-02-03T06:10:31;7.60;;;3.22;;
71236;SDS011;58984;51.960;5.582;2023-02-03T06:12:57;9.20;;;2.78;;
71236;SDS011;58984;51.960;5.582;2023-02-03T06:15:23;7.07;;;2.75;;
71236;SDS011;58984;51.960;5.582;2023-02-03T06:17:49;8.82;;;3.33;;
71236;SDS011;58984;51.960;5.582;2023-02-03T06:20:15;5.20;;;2.78;;
71236;SDS011;58984;51.960;5.582;2023-02-03T06:22:42;7.95;;;3.25;;
71236;SDS011;58984;51.960;5.582;2023-02-03T06:25:08;9.10;;;3.60;;
71236;SDS011;58984;51.960;5.582;2023-02-03T06:27:34;10.80;;;3.05;;
71236;SDS011;58984;51.960;5.582;2023-02-03T06:30:00;9.85;;;3.58;;
71236;SDS011;58984;51.960;5.582;2023-02-03T06:32:25;7.35;;;3.20;;
71236;SDS011;58984;51.960;5.582;2023-02-03T06:34:51;9.32;;;3.88;;
71236;SDS011;58984;51.960;5.582;2023-02-03T06:37:17;8.07;;;3.33;;
71236;SDS011;58984;51.960;5.582;2023-02-03T06:39:42;6.13;;;3.17;;
71236;SDS011;58984;51.960;5.582;2023-02-03T06:42:08;5.50;;;2.83;;
71236;SDS011;58984;51.960;5.582;2023-02-03T06:44:34;5.68;;;2.63;;
71236;SDS011;58984;51.960;5.582;2023-02-03T06:46:59;8.32;;;2.97;;
71236;SDS011;58984;51.960;5.582;2023-02-03T06:49:26;6.60;;;2.72;;
71236;SDS011;58984;51.960;5.582;2023-02-03T06:51:52;4.97;;;2.58;;
71236;SDS011;58984;51.960;5.582;2023-02-03T06:54:18;10.27;;;3.28;;
71236;SDS011;58984;51.960;5.582;2023-02-03T06:56:43;10.13;;;3.22;;
71236;SDS011;58984;51.960;5.582;2023-02-03T06:59:09;9.70;;;3.15;;
71236;SDS011;58984;51.960;5.582;2023-02-03T07:01:35;4.93;;;3.05;;
71236;SDS011;58984;51.960;5.582;2023-02-03T07:04:01;5.65;;;3.17;;
71236;SDS011;58984;51.960;5.582;2023-02-03T07:06:28;7.30;;;3.13;;
71236;SDS011;58984;51.960;5.582;2023-02-03T07:08:57;7.60;;;2.85;;
71236;SDS011;58984;51.960;5.582;2023-02-03T07:11:23;7.43;;;3.17;;
71236;SDS011;58984;51.960;5.582;2023-02-03T07:13:49;6.28;;;3.03;;
71236;SDS011;58984;51.960;5.582;2023-02-03T07:16:15;8.43;;;2.95;;
71236;SDS011;58984;51.960;5.582;2023-02-03T07:18:41;7.05;;;3.38;;
71236;SDS011;58984;51.960;5.582;2023-02-03T07:21:07;4.95;;;2.63;;
71236;SDS011;58984;51.960;5.582;2023-02-03T07:23:33;6.07;;;2.67;;
71236;SDS011;58984;51.960;5.582;2023-02-03T07:25:59;9.50;;;3.03;;
71236;SDS011;58984;51.960;5.582;2023-02-03T07:28:27;12.32;;;3.20;;
71236;SDS011;58984;51.960;5.582;2023-02-03T07:30:52;6.90;;;3.38;;
71236;SDS011;58984;51.960;5.582;2023-02-03T07:33:18;6.85;;;2.75;;
71236;SDS011;58984;51.960;5.582;2023-02-03T07:35:50;7.82;;;3.17;;
71236;SDS011;58984;51.960;5.582;2023-02-03T07:38:16;7.25;;;2.83;;
71236;SDS011;58984;51.960;5.582;2023-02-03T07:40:42;6.78;;;2.30;;
71236;SDS011;58984;51.960;5.582;2023-02-03T07:43:07;8.38;;;2.95;;
71236;SDS011;58984;51.960;5.582;2023-02-03T07:45:33;3.83;;;2.53;;
71236;SDS011;58984;51.960;5.582;2023-02-03T07:47:58;4.50;;;2.45;;
71236;SDS011;58984;51.960;5.582;2023-02-03T07:50:24;7.90;;;2.72;;
71236;SDS011;58984;51.960;5.582;2023-02-03T07:52:50;4.97;;;2.38;;
71236;SDS011;58984;51.960;5.582;2023-02-03T07:55:16;6.68;;;3.00;;
71236;SDS011;58984;51.960;5.582;2023-02-03T07:57:41;9.48;;;3.50;;
71236;SDS011;58984;51.960;5.582;2023-02-03T08:00:09;5.68;;;2.90;;
71236;SDS011;58984;51.960;5.582;2023-02-03T08:02:37;9.88;;;2.88;;
71236;SDS011;58984;51.960;5.582;2023-02-03T08:05:03;7.00;;;2.97;;
71236;SDS011;58984;51.960;5.582;2023-02-03T08:07:29;5.88;;;2.60;;
71236;SDS011;58984;51.960;5.582;2023-02-03T08:09:55;6.28;;;2.90;;
71236;SDS011;58984;51.960;5.582;2023-02-03T08:12:20;7.10;;;3.00;;
71236;SDS011;58984;51.960;5.582;2023-02-03T08:14:46;3.00;;;2.30;;
71236;SDS011;58984;51.960;5.582;2023-02-03T08:17:12;6.07;;;2.50;;
71236;SDS011;58984;51.960;5.582;2023-02-03T08:19:37;4.53;;;2.75;;
71236;SDS011;58984;51.960;5.582;2023-02-03T08:22:03;5.47;;;2.92;;
71236;SDS011;58984;51.960;5.582;2023-02-03T08:24:28;5.72;;;2.75;;
71236;SDS011;58984;51.960;5.582;2023-02-03T08:26:54;4.35;;;2.08;;
71236;SDS011;58984;51.960;5.582;2023-02-03T08:29:20;4.25;;;2.45;;
71236;SDS011;58984;51.960;5.582;2023-02-03T08:31:45;5.53;;;3.00;;
71236;SDS011;58984;51.960;5.582;2023-02-03T08:34:11;4.40;;;2.22;;
71236;SDS011;58984;51.960;5.582;2023-02-03T08:36:36;5.07;;;2.40;;
71236;SDS011;58984;51.960;5.582;2023-02-03T08:39:04;5.55;;;2.72;;
71236;SDS011;58984;51.960;5.582;2023-02-03T08:41:30;5.15;;;2.35;;
71236;SDS011;58984;51.960;5.582;2023-02-03T08:43:58;7.97;;;2.17;;
71236;SDS011;58984;51.960;5.582;2023-02-03T08:46:24;5.93;;;2.53;;
71236;SDS011;58984;51.960;5.582;2023-02-03T08:48:49;8.45;;;3.13;;
71236;SDS011;58984;51.960;5.582;2023-02-03T08:51:17;9.38;;;2.83;;
71236;SDS011;58984;51.960;5.582;2023-02-03T08:53:43;4.30;;;2.35;;
71236;SDS011;58984;51.960;5.582;2023-02-03T08:56:09;3.78;;;2.40;;
71236;SDS011;58984;51.960;5.582;2023-02-03T08:58:36;6.30;;;2.25;;
71236;SDS011;58984;51.960;5.582;2023-02-03T09:01:06;5.25;;;2.63;;
71236;SDS011;58984;51.960;5.582;2023-02-03T09:03:33;5.13;;;2.28;;
71236;SDS011;58984;51.960;5.582;2023-02-03T09:05:59;3.80;;;2.28;;
71236;SDS011;58984;51.960;5.582;2023-02-03T09:08:25;4.28;;;2.10;;
71236;SDS011;58984;51.960;5.582;2023-02-03T09:10:51;4.50;;;2.30;;
71236;SDS011;58984;51.960;5.582;2023-02-03T09:13:17;4.38;;;2.15;;
71236;SDS011;58984;51.960;5.582;2023-02-03T09:15:42;4.40;;;2.40;;
71236;SDS011;58984;51.960;5.582;2023-02-03T09:18:08;2.75;;;2.08;;
71236;SDS011;58984;51.960;5.582;2023-02-03T09:20:33;7.22;;;2.88;;
71236;SDS011;58984;51.960;5.582;2023-02-03T09:22:59;4.90;;;2.53;;
71236;SDS011;58984;51.960;5.582;2023-02-03T09:25:25;4.80;;;2.30;;
71236;SDS011;58984;51.960;5.582;2023-02-03T09:27:51;3.33;;;2.15;;
71236;SDS011;58984;51.960;5.582;2023-02-03T09:30:16;5.00;;;2.33;;
71236;SDS011;58984;51.960;5.582;2023-02-03T09:32:42;6.55;;;2.35;;
71236;SDS011;58984;51.960;5.582;2023-02-03T09:35:08;3.78;;;2.10;;
71236;SDS011;58984;51.960;5.582;2023-02-03T09:37:34;4.22;;;2.22;;
71236;SDS011;58984;51.960;5.582;2023-02-03T09:40:00;5.28;;;2.45;;
71236;SDS011;58984;51.960;5.582;2023-02-03T09:45:07;3.03;;;2.03;;
71236;SDS011;58984;51.960;5.582;2023-02-03T09:47:36;6.03;;;1.95;;
71236;SDS011;58984;51.960;5.582;2023-02-03T09:50:06;5.15;;;2.38;;
71236;SDS011;58984;51.960;5.582;2023-02-03T09:52:43;3.40;;;2.03;;
71236;SDS011;58984;51.960;5.582;2023-02-03T09:58:02;5.13;;;2.58;;
71236;SDS011;58984;51.960;5.582;2023-02-03T10:00:45;5.32;;;2.50;;
71236;SDS011;58984;51.960;5.582;2023-02-03T10:11:27;2.92;;;2.10;;
71236;SDS011;58984;51.960;5.582;2023-02-03T10:19:40;4.75;;;2.03;;
71236;SDS011;58984;51.960;5.582;2023-02-03T10:22:13;4.63;;;2.30;;
71236;SDS011;58984;51.960;5.582;2023-02-03T10:27:26;5.78;;;1.92;;
71236;SDS011;58984;51.960;5.582;2023-02-03T10:30:17;3.60;;;2.25;;
71236;SDS011;58984;51.960;5.582;2023-02-03T10:33:08;5.07;;;2.45;;
71236;SDS011;58984;51.960;5.582;2023-02-03T10:35:45;3.55;;;2.08;;
71236;SDS011;58984;51.960;5.582;2023-02-03T10:38:19;5.18;;;2.30;;
71236;SDS011;58984;51.960;5.582;2023-02-03T10:41:10;6.50;;;2.28;;
71236;SDS011;58984;51.960;5.582;2023-02-03T10:43:36;6.28;;;2.05;;
71236;SDS011;58984;51.960;5.582;2023-02-03T10:46:11;3.97;;;2.03;;
71236;SDS011;58984;51.960;5.582;2023-02-03T10:48:37;4.90;;;2.10;;
71236;SDS011;58984;51.960;5.582;2023-02-03T10:51:03;5.70;;;2.47;;
71236;SDS011;58984;51.960;5.582;2023-02-03T10:53:36;4.28;;;2.33;;
71236;SDS011;58984;51.960;5.582;2023-02-03T10:56:09;5.40;;;2.22;;
71236;SDS011;58984;51.960;5.582;2023-02-03T10:58:38;6.53;;;2.00;;
71236;SDS011;58984;51.960;5.582;2023-02-03T11:03:42;7.45;;;2.28;;
71236;SDS011;58984;51.960;5.582;2023-02-03T11:06:17;4.93;;;2.40;;
71236;SDS011;58984;51.960;5.582;2023-02-03T11:08:43;3.83;;;1.75;;
71236;SDS011;58984;51.960;5.582;2023-02-03T11:11:18;2.72;;;2.00;;
71236;SDS011;58984;51.960;5.582;2023-02-03T11:13:52;2.47;;;2.10;;
71236;SDS011;58984;51.960;5.582;2023-02-03T11:16:19;4.88;;;2.35;;
71236;SDS011;58984;51.960;5.582;2023-02-03T11:18:55;3.80;;;2.10;;
71236;SDS011;58984;51.960;5.582;2023-02-03T11:21:25;2.58;;;1.88;;
71236;SDS011;58984;51.960;5.582;2023-02-03T11:26:26;4.15;;;2.30;;
71236;SDS011;58984;51.960;5.582;2023-02-03T11:28:55;4.07;;;2.53;;
71236;SDS011;58984;51.960;5.582;2023-02-03T11:31:24;2.67;;;2.10;;
71236;SDS011;58984;51.960;5.582;2023-02-03T11:34:35;5.28;;;2.35;;
71236;SDS011;58984;51.960;5.582;2023-02-03T11:36:42;3.75;;;1.75;;
71236;SDS011;58984;51.960;5.582;2023-02-03T11:39:18;5.65;;;2.30;;
71236;SDS011;58984;51.960;5.582;2023-02-03T11:41:47;4.25;;;2.22;;
71236;SDS011;58984;51.960;5.582;2023-02-03T11:44:24;2.20;;;1.98;;
71236;SDS011;58984;51.960;5.582;2023-02-03T11:47:03;4.60;;;1.98;;
71236;SDS011;58984;51.960;5.582;2023-02-03T11:52:37;2.22;;;1.83;;
71236;SDS011;58984;51.960;5.582;2023-02-03T11:55:21;9.25;;;3.17;;
71236;SDS011;58984;51.960;5.582;2023-02-03T12:09:06;6.18;;;2.78;;
71236;SDS011;58984;51.960;5.582;2023-02-03T12:12:05;6.60;;;2.97;;
71236;SDS011;58984;51.960;5.582;2023-02-03T12:17:30;3.35;;;2.50;;
71236;SDS011;58984;51.960;5.582;2023-02-03T12:23:02;2.90;;;2.25;;
71236;SDS011;58984;51.960;5.582;2023-02-03T12:36:42;5.20;;;2.80;;
71236;SDS011;58984;51.960;5.582;2023-02-03T12:39:40;8.00;;;2.55;;
71236;SDS011;58984;51.960;5.582;2023-02-03T12:42:30;4.47;;;2.60;;
71236;SDS011;58984;51.960;5.582;2023-02-03T12:47:31;2.55;;;2.08;;
71236;SDS011;58984;51.960;5.582;2023-02-03T12:49:59;4.28;;;2.33;;
71236;SDS011;58984;51.960;5.582;2023-02-03T12:55:34;4.43;;;2.25;;
71236;SDS011;58984;51.960;5.582;2023-02-03T12:58:09;4.32;;;2.08;;
71236;SDS011;58984;51.960;5.582;2023-02-03T13:08:38;3.20;;;2.50;;
71236;SDS011;58984;51.960;5.582;2023-02-03T13:13:35;6.70;;;2.25;;
71236;SDS011;58984;51.960;5.582;2023-02-03T13:16:07;4.05;;;2.17;;
71236;SDS011;58984;51.960;5.582;2023-02-03T13:18:39;4.30;;;2.00;;
71236;SDS011;58984;51.960;5.582;2023-02-03T13:21:10;4.53;;;2.03;;
71236;SDS011;58984;51.960;5.582;2023-02-03T13:23:36;1.90;;;1.80;;
71236;SDS011;58984;51.960;5.582;2023-02-03T13:39:36;3.30;;;1.98;;
71236;SDS011;58984;51.960;5.582;2023-02-03T13:44:42;2.72;;;1.92;;
71236;SDS011;58984;51.960;5.582;2023-02-03T13:47:15;2.20;;;2.00;;
71236;SDS011;58984;51.960;5.582;2023-02-03T13:49:42;3.45;;;2.05;;
71236;SDS011;58984;51.960;5.582;2023-02-03T13:52:23;3.90;;;2.20;;
71236;SDS011;58984;51.960;5.582;2023-02-03T13:54:49;2.97;;;1.98;;
71236;SDS011;58984;51.960;5.582;2023-02-03T13:57:36;4.28;;;2.05;;
71236;SDS011;58984;51.960;5.582;2023-02-03T14:05:51;3.05;;;1.90;;
71236;SDS011;58984;51.960;5.582;2023-02-03T14:16:38;4.53;;;2.15;;
71236;SDS011;58984;51.960;5.582;2023-02-03T14:21:47;2.80;;;2.17;;
71236;SDS011;58984;51.960;5.582;2023-02-03T14:24:16;4.82;;;2.50;;
71236;SDS011;58984;51.960;5.582;2023-02-03T14:26:44;3.85;;;2.25;;
71236;SDS011;58984;51.960;5.582;2023-02-03T14:29:25;4.60;;;2.20;;
71236;SDS011;58984;51.960;5.582;2023-02-03T14:34:33;3.90;;;1.95;;
71236;SDS011;58984;51.960;5.582;2023-02-03T14:39:43;4.03;;;2.28;;
71236;SDS011;58984;51.960;5.582;2023-02-03T14:42:37;4.20;;;2.15;;
71236;SDS011;58984;51.960;5.582;2023-02-03T14:45:35;6.32;;;2.70;;
71236;SDS011;58984;51.960;5.582;2023-02-03T14:53:39;3.33;;;2.40;;
71236;SDS011;58984;51.960;5.582;2023-02-03T14:59:18;3.70;;;2.28;;
71236;SDS011;58984;51.960;5.582;2023-02-03T15:06:45;4.50;;;2.80;;
71236;SDS011;58984;51.960;5.582;2023-02-03T15:11:59;7.03;;;2.50;;
71236;SDS011;58984;51.960;5.582;2023-02-03T15:14:28;7.20;;;2.83;;
71236;SDS011;58984;51.960;5.582;2023-02-03T15:17:01;4.55;;;2.60;;
71236;SDS011;58984;51.960;5.582;2023-02-03T15:19:36;3.47;;;2.70;;
71236;SDS011;58984;51.960;5.582;2023-02-03T15:22:16;4.82;;;2.78;;
71236;SDS011;58984;51.960;5.582;2023-02-03T15:24:47;5.28;;;2.80;;
71236;SDS011;58984;51.960;5.582;2023-02-03T15:27:19;4.28;;;2.70;;
71236;SDS011;58984;51.960;5.582;2023-02-03T15:29:46;9.77;;;3.17;;
71236;SDS011;58984;51.960;5.582;2023-02-03T15:32:13;7.07;;;3.10;;
71236;SDS011;58984;51.960;5.582;2023-02-03T15:34:53;7.27;;;3.27;;
71236;SDS011;58984;51.960;5.582;2023-02-03T15:37:38;8.35;;;3.15;;
71236;SDS011;58984;51.960;5.582;2023-02-03T15:40:12;5.63;;;3.20;;
71236;SDS011;58984;51.960;5.582;2023-02-03T15:45:29;6.10;;;3.00;;
71236;SDS011;58984;51.960;5.582;2023-02-03T15:48:25;10.52;;;2.97;;
71236;SDS011;58984;51.960;5.582;2023-02-03T15:50:54;6.22;;;3.08;;
71236;SDS011;58984;51.960;5.582;2023-02-03T15:53:32;9.68;;;3.90;;
71236;SDS011;58984;51.960;5.582;2023-02-03T15:56:10;12.25;;;4.65;;
71236;SDS011;58984;51.960;5.582;2023-02-03T15:58:43;7.40;;;3.50;;
71236;SDS011;58984;51.960;5.582;2023-02-03T16:01:10;11.23;;;4.40;;
71236;SDS011;58984;51.960;5.582;2023-02-03T16:03:42;8.35;;;4.22;;
71236;SDS011;58984;51.960;5.582;2023-02-03T16:06:26;9.40;;;3.95;;
71236;SDS011;58984;51.960;5.582;2023-02-03T16:08:59;7.93;;;4.07;;
71236;SDS011;58984;51.960;5.582;2023-02-03T16:11:26;6.35;;;3.72;;
71236;SDS011;58984;51.960;5.582;2023-02-03T16:13:53;7.88;;;3.65;;
71236;SDS011;58984;51.960;5.582;2023-02-03T16:16:24;8.75;;;3.90;;
71236;SDS011;58984;51.960;5.582;2023-02-03T16:18:54;7.72;;;3.88;;
71236;SDS011;58984;51.960;5.582;2023-02-03T16:29:54;5.95;;;3.15;;
71236;SDS011;58984;51.960;5.582;2023-02-03T16:35:51;10.35;;;3.90;;
71236;SDS011;58984;51.960;5.582;2023-02-03T16:38:35;12.38;;;4.05;;
71236;SDS011;58984;51.960;5.582;2023-02-03T16:41:19;10.25;;;3.35;;
71236;SDS011;58984;51.960;5.582;2023-02-03T16:44:04;9.70;;;3.60;;
71236;SDS011;58984;51.960;5.582;2023-02-03T16:46:48;12.50;;;3.55;;
71236;SDS011;58984;51.960;5.582;2023-02-03T16:49:32;10.70;;;3.97;;
71236;SDS011;58984;51.960;5.582;2023-02-03T16:52:17;7.93;;;3.65;;
71236;SDS011;58984;51.960;5.582;2023-02-03T16:54:42;8.05;;;3.72;;
71236;SDS011;58984;51.960;5.582;2023-02-03T16:57:08;8.45;;;4.18;;
71236;SDS011;58984;51.960;5.582;2023-02-03T16:59:33;9.85;;;4.90;;
71236;SDS011;58984;51.960;5.582;2023-02-03T17:01:59;10.98;;;3.83;;
71236;SDS011;58984;51.960;5.582;2023-02-03T17:04:25;7.30;;;4.13;;
71236;SDS011;58984;51.960;5.582;2023-02-03T17:06:51;9.70;;;4.65;;
71236;SDS011;58984;51.960;5.582;2023-02-03T17:09:16;10.48;;;4.53;;
71236;SDS011;58984;51.960;5.582;2023-02-03T17:11:47;10.77;;;4.15;;
71236;SDS011;58984;51.960;5.582;2023-02-03T17:14:13;12.27;;;4.70;;
71236;SDS011;58984;51.960;5.582;2023-02-03T17:16:39;11.43;;;5.50;;
71236;SDS011;58984;51.960;5.582;2023-02-03T17:19:08;12.15;;;4.72;;
71236;SDS011;58984;51.960;5.582;2023-02-03T17:21:34;9.60;;;4.13;;
71236;SDS011;58984;51.960;5.582;2023-02-03T17:24:00;13.15;;;5.03;;
71236;SDS011;58984;51.960;5.582;2023-02-03T17:26:26;12.88;;;4.82;;
71236;SDS011;58984;51.960;5.582;2023-02-03T17:28:51;12.15;;;4.38;;
71236;SDS011;58984;51.960;5.582;2023-02-03T17:31:18;10.63;;;4.47;;
71236;SDS011;58984;51.960;5.582;2023-02-03T17:33:44;11.88;;;4.30;;
71236;SDS011;58984;51.960;5.582;2023-02-03T17:36:15;7.53;;;4.13;;
71236;SDS011;58984;51.960;5.582;2023-02-03T17:38:42;9.38;;;4.20;;
71236;SDS011;58984;51.960;5.582;2023-02-03T17:41:11;7.68;;;4.50;;
71236;SDS011;58984;51.960;5.582;2023-02-03T17:43:38;12.98;;;4.28;;
71236;SDS011;58984;51.960;5.582;2023-02-03T17:46:04;11.95;;;4.60;;
71236;SDS011;58984;51.960;5.582;2023-02-03T17:48:30;10.48;;;4.90;;
71236;SDS011;58984;51.960;5.582;2023-02-03T17:51:06;9.27;;;4.53;;
71236;SDS011;58984;51.960;5.582;2023-02-03T17:53:39;8.15;;;4.32;;